Weather Data

Pearl Creek Farm: 8878 N Farm Road 75, Walnut Grove MO 65770

<== Previous Day (Thursday 21 Aug 2008) | Next Day (Saturday 23 Aug 2008) ==>

Summary Precipitation Data For Friday 22 August 2008

ElementValueUnits
Precipitation0"
Notes(none)
SourceSpringfield-Branson National Airport (SGF)

Summary Temperature Data For Friday 22 August 2008

ElementValueUnits
High Temperature88 oF
Low Temperature70 oF
Average Temperature78 oF
High Humidity94 %
Low Humidity46 %
Average Humidity74 %
SourceSpringfield-Branson National Airport (SGF)

Detail Temperature Data For Friday 22 August 2008

Date / TimeTemp (F)RH (%)Dew Pt (F)Report Date / TimeSource
2008-08-22 06:52:00 71 94 69.0 2017-12-29 19:14:24.89625 Springfield-Branson National Airport (SGF)
2008-08-22 05:52:00 70 93 68.0 2017-12-29 19:14:24.89625 Springfield-Branson National Airport (SGF)
2008-08-22 00:52:00 73 90 70.0 2017-12-29 19:14:24.89625 Springfield-Branson National Airport (SGF)
2008-08-22 01:52:00 73 90 70.0 2017-12-29 19:14:24.89625 Springfield-Branson National Airport (SGF)
2008-08-22 02:52:00 72 91 69.0 2017-12-29 19:14:24.89625 Springfield-Branson National Airport (SGF)
2008-08-22 03:52:00 71 94 69.0 2017-12-29 19:14:24.89625 Springfield-Branson National Airport (SGF)
2008-08-22 04:52:00 70 93 68.0 2017-12-29 19:14:24.89625 Springfield-Branson National Airport (SGF)
2008-08-22 07:52:00 74 85 69.0 2017-12-29 19:14:24.89625 Springfield-Branson National Airport (SGF)
2008-08-22 08:52:00 76 82 70.0 2017-12-29 19:14:24.89625 Springfield-Branson National Airport (SGF)
2008-08-22 09:52:00 77 77 69.0 2017-12-29 19:14:24.89625 Springfield-Branson National Airport (SGF)
2008-08-22 11:52:00 84 59 68.0 2017-12-29 19:14:24.89625 Springfield-Branson National Airport (SGF)
2008-08-22 12:52:00 85 55 67.0 2017-12-29 19:14:24.89625 Springfield-Branson National Airport (SGF)
2008-08-22 13:52:00 87 50 66.0 2017-12-29 19:14:24.89625 Springfield-Branson National Airport (SGF)
2008-08-22 15:52:00 88 46 65.0 2017-12-29 19:14:24.89625 Springfield-Branson National Airport (SGF)
2008-08-22 16:52:00 87 51 67.0 2017-12-29 19:14:24.89625 Springfield-Branson National Airport (SGF)
2008-08-22 10:52:00 82 65 69.0 2017-12-29 19:14:24.89625 Springfield-Branson National Airport (SGF)
2008-08-22 14:52:00 88 46 65.0 2017-12-29 19:14:24.89625 Springfield-Branson National Airport (SGF)
2008-08-22 17:52:00 84 57 67.0 2017-12-29 19:14:24.89625 Springfield-Branson National Airport (SGF)
2008-08-22 18:52:00 81 67 69.0 2017-12-29 19:14:24.89625 Springfield-Branson National Airport (SGF)
2008-08-22 19:52:00 78 79 71.0 2017-12-29 19:14:24.89625 Springfield-Branson National Airport (SGF)
2008-08-22 20:52:00 76 74 67.0 2017-12-29 19:14:24.89625 Springfield-Branson National Airport (SGF)
2008-08-22 21:52:00 74 79 67.0 2017-12-29 19:14:24.89625 Springfield-Branson National Airport (SGF)
2008-08-22 22:52:00 73 81 67.0 2017-12-29 19:14:24.89625 Springfield-Branson National Airport (SGF)
2008-08-22 23:52:00 72 87 68.0 2017-12-29 19:14:24.89625 Springfield-Branson National Airport (SGF)

A total of 24 rows are displayed.